Accueil
METAR-TAF:

METAR-TAF

Aéroports :

Aéroport de Nice-Côte d'Azur

Nice, France

latitude: 43-39N, longitude: 007-12E, altitude: 4 m

Observation

Le bulletin a été fait il y a 12 minutes, à 01:30 UTC
Vent 9 kt de nord/nord-ouest
Température 17°C
Humidité 48%
Pression 1016 hPa
Visibilité 10 km ou plus
pas de nuages en-dessous de 1500 mètres et pas de cumulonimbus.

METAR: LFMN 240130Z 33009KT CAVOK 17/06 Q1016 NOSIG

Heure: 03:42 (01:42 UTC)

Prévision

Le bulletin a été fait il y a 5 heures et 42 minutes, à 20:00 UTC
Prévision valable du 23 à 21 UTC au 25 à 03 UTC
Vent 10 kt de nord/nord-ouest
Visibilité 10 km ou plus
pas de nuages en-dessous de 1500 mètres et pas de cumulonimbus.
Evoluant progressivement
du 24 à 06 UTC au 24 à 08 UTC
Vent 10 kt de sud-est
Evoluant progressivement
du 24 à 17 UTC au 24 à 19 UTC
Vent 3 kt de direction variable

TAF: LFMN 232000Z 2321/2503 33010KT CAVOK BECMG 2406/2408 14010KT BECMG 2417/2419 VRB03KT

Observations et prévisions météorologiques de plus de 4000 aéroports (messages METAR et TAF).

Les stations disponibles sont représentées par des disques jaunes et rouges sur la carte.

Passer la souris dessus pour voir le nom de la station.

Cliquer dessus pour voir les observations et prévisions météorologiques.

Pour changer de carte: cliquez sur les boutons verts avec une croix noire pour zoomer, sur le bouton vert avec un tiret pour effectuer un zoom arrière, ou sur les flèches vertes pour les cartes adjacentes.


METAR-TAF: